Cobb County-Mc Collum Field Atlanta US
ICAO: KRYY
IATA: RYY
Category: Medium
Scheduled Services: No

Elevation: 1040 ft
TransAlt. 18000 ft.

Airport Communications:
ATLANTA APP/DEP:121
AWOS 3:128.125
CTAF:125.9
GND:119
MC COLLUM TWR:125.9
UNICOM:122.7

KRYY Zoom In..

Runways:

(A) RW 09 length 6311 ft width 100 ft
---- / hdg 93

(B) RW 27 length 6311 ft width 100 ft
ILS 111.90 / hdg 273

Location; KRYY
Day. 20 / Time. 19.48 Zulu
* Altimeter: 30.00
* Temperature: 30° c. 86°f.
* Wind from: 150° Speed 04 kn.
Dewpoint: 20° c.
Visibility: 10 Statute Miles.
Clouds: Broken 5500 ft.

KRYY 201948Z 15004KT 10SM BKN055 30/20 A3000 RMK AO2 SLP879 T03000200


Wind From 150°
Speed 04 kn.

 
 
jpsmedia.com for Web Design worldairports.se 2018   terms of use